Terminal Aerodrome Forecast
Issued by NWS

Home | Current Version | Previous Version | Text Only | Print | Product List | Glossary On
Versions: 1 2 3 4 5 6 7 8 9 10 11 12 13 14 15 16 17 18 19 20 21 22 23 24 25 26 27 28 29 30 31
000
FTUS43 KDDC 231139
TAFHYS
TAF
KHYS 231139Z 2312/2412 32013G20KT P6SM SCT020 BKN035
     FM231700 34025G34KT 5SM -SN BKN015
      TEMPO 2318/2322 2SM -SN OVC012
     FM240000 34017G25KT P6SM OVC020=

USA.gov is the U.S. government's official web portal to all federal, state and local government web resources and services.